Time;durP1;ratioP1;P1;durP2;ratioP2;P2;SDS_P1;SDS_P2;PMS_P1;PMS_P2;Temp;Humidity;BMP_temperature;BMP_pressure;BME280_temperature;BME280_humidity;BME280_pressure;Samples;Min_cycle;Max_cycle;Signal;HPM_P1;HPM_P2
2023/07/10 00:01:03;;;;;;;;;;;;;;;;;;7365476;19;19929;-68
2023/07/10 00:03:29;;;;;;;;;;;;;;;;;;7389892;19;19919;-68
2023/07/10 00:05:55;;;;;;;;;;;;;;;;;;7367889;19;19922;-68
2023/07/10 00:08:20;;;;;;;;;;;;;;;;;;7366785;19;19915;-68
2023/07/10 00:10:45;;;;;;;;;;;;;;;;;;7364262;19;19925;-67
2023/07/10 00:13:11;;;;;;;;;;;;;;;;;;7367301;19;19925;-69
2023/07/10 00:15:37;;;;;;;;;;;;;;;;;;7388988;19;20342;-68
2023/07/10 00:18:06;;;;;;;;;;;;;;;;;;7366369;19;19943;-67
2023/07/10 00:20:32;;;;;;;;;;;;;;;;;;7367277;19;19914;-69
2023/07/10 00:22:57;;;;;;;;;;;;;;;;;;7365380;19;19918;-68
2023/07/10 00:25:23;;;;;;;;;;;;;;;;;;7367694;19;19936;-68
2023/07/10 00:27:49;;;;;;;;;;;;;;;;;;7366296;19;19922;-68
2023/07/10 00:30:19;;;;;;;;;;;;;;;;;;7389648;19;19933;-69
2023/07/10 00:32:45;;;;;;;;;;;;;;;;;;7367798;19;19935;-69
2023/07/10 00:35:16;;;;;;;;;;;;;;;;;;7368585;19;19935;-69
2023/07/10 00:37:41;;;;;;;;;;;;;;;;;;7367498;19;19915;-67
2023/07/10 00:40:15;;;;;;;;;;;;;;;;;;7363966;19;21222;-67
2023/07/10 00:42:41;;;;;;;;;;;;;;;;;;7389289;19;19919;-69
2023/07/10 00:45:11;;;;;;;;;;;;;;;;;;7368064;19;19970;-68
2023/07/10 00:47:39;;;;;;;;;;;;;;;;;;7366877;19;19953;-69
2023/07/10 00:50:16;;;;;;;;;;;;;;;;;;7367306;19;19915;-72
2023/07/10 00:52:43;;;;;;;;;;;;;;;;;;7367998;19;19925;-67
2023/07/10 00:55:13;;;;;;;;;;;;;;;;;;7366705;19;19931;-67
2023/07/10 00:57:40;;;;;;;;;;;;;;;;;;7388593;19;20369;-69
2023/07/10 01:00:14;;;;;;;;;;;;;;;;;;7365658;19;20372;-68
2023/07/10 01:02:40;;;;;;;;;;;;;;;;;;7365813;19;19918;-68
2023/07/10 01:05:05;;;;;;;;;;;;;;;;;;7367227;19;20272;-67
2023/07/10 01:07:40;;;;;;;;;;;;;;;;;;7365675;19;19915;-68
2023/07/10 01:10:07;;;;;;;;;;;;;;;;;;7366000;19;19939;-70
2023/07/10 01:12:32;;;;;;;;;;;;;;;;;;7387007;19;19915;-68
2023/07/10 01:14:58;;;;;;;;;;;;;;;;;;7365478;19;19939;-68
2023/07/10 01:17:23;;;;;;;;;;;;;;;;;;7364756;19;19986;-67
2023/07/10 01:19:49;;;;;;;;;;;;;;;;;;7362616;19;19919;-69
2023/07/10 01:22:15;;;;;;;;;;;;;;;;;;7365134;19;19922;-68
2023/07/10 01:24:40;;;;;;;;;;;;;;;;;;7388963;19;19925;-68
2023/07/10 01:27:07;;;;;;;;;;;;;;;;;;7364893;19;20024;-68
2023/07/10 01:29:34;;;;;;;;;;;;;;;;;;7364651;19;20350;-68
2023/07/10 01:32:00;;;;;;;;;;;;;;;;;;7366346;19;19919;-69
2023/07/10 01:34:33;;;;;;;;;;;;;;;;;;7367217;19;20802;-68
2023/07/10 01:36:58;;;;;;;;;;;;;;;;;;7364775;19;19927;-68
2023/07/10 01:39:30;;;;;;;;;;;;;;;;;;7386531;19;19926;-68
2023/07/10 01:41:55;;;;;;;;;;;;;;;;;;7362947;19;19954;-68
2023/07/10 01:44:24;;;;;;;;;;;;;;;;;;7364698;19;19926;-68
2023/07/10 01:46:50;;;;;;;;;;;;;;;;;;7364771;19;20354;-68
2023/07/10 01:49:16;;;;;;;;;;;;;;;;;;7362361;19;19974;-68
2023/07/10 01:51:41;;;;;;;;;;;;;;;;;;7386188;19;19937;-68
2023/07/10 01:54:10;;;;;;;;;;;;;;;;;;7364389;19;19914;-69
2023/07/10 01:56:36;;;;;;;;;;;;;;;;;;7363359;19;19979;-68
2023/07/10 01:59:01;;;;;;;;;;;;;;;;;;7363843;19;19943;-67
2023/07/10 02:01:27;;;;;;;;;;;;;;;;;;7363636;19;20012;-66
2023/07/10 02:03:52;;;;;;;;;;;;;;;;;;7364037;19;19940;-68
2023/07/10 02:06:17;;;;;;;;;;;;;;;;;;7387754;19;19986;-68
2023/07/10 02:08:42;;;;;;;;;;;;;;;;;;7362075;19;19955;-66
2023/07/10 02:11:08;;;;;;;;;;;;;;;;;;7363894;19;19923;-67
2023/07/10 02:13:33;;;;;;;;;;;;;;;;;;7371356;19;19927;-67
2023/07/10 02:16:01;;;;;;;;;;;;;;;;;;7372913;19;20562;-67
2023/07/10 02:18:26;;;;;;;;;;;;;;;;;;7389757;19;20382;-67
2023/07/10 02:20:53;;;;;;;;;;;;;;;;;;7369396;19;19918;-67
2023/07/10 02:23:18;;;;;;;;;;;;;;;;;;7370385;19;19915;-66
2023/07/10 02:25:44;;;;;;;;;;;;;;;;;;7371784;19;19929;-66
2023/07/10 02:28:09;;;;;;;;;;;;;;;;;;7369136;19;20030;-68
2023/07/10 02:30:36;;;;;;;;;;;;;;;;;;7389939;19;19938;-67
2023/07/10 02:33:01;;;;;;;;;;;;;;;;;;7368758;19;19929;-66
2023/07/10 02:35:27;;;;;;;;;;;;;;;;;;7368681;19;19923;-66
2023/07/10 02:37:52;;;;;;;;;;;;;;;;;;7369023;19;19919;-67
2023/07/10 02:40:17;;;;;;;;;;;;;;;;;;7370687;19;19994;-67
2023/07/10 02:42:42;;;;;;;;;;;;;;;;;;7393384;19;19934;-66
2023/07/10 02:45:08;;;;;;;;;;;;;;;;;;7371361;19;19950;-66
2023/07/10 02:47:33;;;;;;;;;;;;;;;;;;7370272;19;19927;-66
2023/07/10 02:49:58;;;;;;;;;;;;;;;;;;7370904;19;19922;-67
2023/07/10 02:52:24;;;;;;;;;;;;;;;;;;7371778;19;19918;-66
2023/07/10 02:54:49;;;;;;;;;;;;;;;;;;7370663;19;19962;-67
2023/07/10 02:57:14;;;;;;;;;;;;;;;;;;7390975;19;20468;-67
2023/07/10 02:59:39;;;;;;;;;;;;;;;;;;7368879;19;20676;-67
2023/07/10 03:02:05;;;;;;;;;;;;;;;;;;7370651;19;19919;-67
2023/07/10 03:04:30;;;;;;;;;;;;;;;;;;7371286;19;19915;-67
2023/07/10 03:06:55;;;;;;;;;;;;;;;;;;7370296;19;19941;-67
2023/07/10 03:09:21;;;;;;;;;;;;;;;;;;7391581;19;19915;-67
2023/07/10 03:11:46;;;;;;;;;;;;;;;;;;7367799;19;19922;-67
2023/07/10 03:14:11;;;;;;;;;;;;;;;;;;7371021;19;20365;-66
2023/07/10 03:16:37;;;;;;;;;;;;;;;;;;7369698;19;19922;-67
2023/07/10 03:19:02;;;;;;;;;;;;;;;;;;7370547;19;22350;-66
2023/07/10 03:21:27;;;;;;;;;;;;;;;;;;7395088;19;19933;-66
2023/07/10 03:23:52;;;;;;;;;;;;;;;;;;7375056;19;19991;-66
2023/07/10 03:26:17;;;;;;;;;;;;;;;;;;7376635;19;19919;-66
2023/07/10 03:28:43;;;;;;;;;;;;;;;;;;7372417;19;19918;-66
2023/07/10 03:31:08;;;;;;;;;;;;;;;;;;7370169;19;20728;-66
2023/07/10 03:33:34;;;;;;;;;;;;;;;;;;7391016;19;19927;-68
2023/07/10 03:36:06;;;;;;;;;;;;;;;;;;7369956;19;20578;-66
2023/07/10 03:38:32;;;;;;;;;;;;;;;;;;7366928;19;19971;-67
2023/07/10 03:40:57;;;;;;;;;;;;;;;;;;7366206;19;19921;-67
2023/07/10 03:43:23;;;;;;;;;;;;;;;;;;7366343;19;19944;-66
2023/07/10 03:45:49;;;;;;;;;;;;;;;;;;7367019;19;19944;-67
2023/07/10 03:48:14;;;;;;;;;;;;;;;;;;7386666;19;19926;-67
2023/07/10 03:50:39;;;;;;;;;;;;;;;;;;7376042;19;19926;-67
2023/07/10 03:53:05;;;;;;;;;;;;;;;;;;7374043;19;19919;-68
2023/07/10 03:55:30;;;;;;;;;;;;;;;;;;7366960;19;19926;-67
2023/07/10 03:57:55;;;;;;;;;;;;;;;;;;7365811;19;19930;-68
2023/07/10 04:00:20;;;;;;;;;;;;;;;;;;7384102;19;19911;-67
2023/07/10 04:02:46;;;;;;;;;;;;;;;;;;7365696;19;19927;-67
2023/07/10 04:05:11;;;;;;;;;;;;;;;;;;7368503;19;20265;-67
2023/07/10 04:07:36;;;;;;;;;;;;;;;;;;7366986;19;20003;-67
2023/07/10 04:10:02;;;;;;;;;;;;;;;;;;7367488;19;19915;-66
2023/07/10 04:12:27;;;;;;;;;;;;;;;;;;7388529;19;20370;-66
2023/07/10 04:14:52;;;;;;;;;;;;;;;;;;7367218;19;19935;-67
2023/07/10 04:17:17;;;;;;;;;;;;;;;;;;7363459;19;19974;-67
2023/07/10 04:19:44;;;;;;;;;;;;;;;;;;7364326;19;19998;-66
2023/07/10 04:22:09;;;;;;;;;;;;;;;;;;7369117;19;19934;-66
2023/07/10 04:24:34;;;;;;;;;;;;;;;;;;7390097;19;19911;-61
2023/07/10 04:27:00;;;;;;;;;;;;;;;;;;7366638;19;19922;-60
2023/07/10 04:29:25;;;;;;;;;;;;;;;;;;7364887;19;19923;-59
2023/07/10 04:31:50;;;;;;;;;;;;;;;;;;7363268;19;20380;-55
2023/07/10 04:34:15;;;;;;;;;;;;;;;;;;7367184;19;19945;-56
2023/07/10 04:36:42;;;;;;;;;;;;;;;;;;7390629;19;19930;-57
2023/07/10 04:39:07;;;;;;;;;;;;;;;;;;7365752;19;20357;-57
2023/07/10 04:41:33;;;;;;;;;;;;;;;;;;7365346;19;19922;-55
2023/07/10 04:43:58;;;;;;;;;;;;;;;;;;7368783;19;19919;-57
2023/07/10 04:46:23;;;;;;;;;;;;;;;;;;7366478;19;19919;-59
2023/07/10 04:48:49;;;;;;;;;;;;;;;;;;7365159;19;19918;-58
2023/07/10 04:51:14;;;;;;;;;;;;;;;;;;7388435;19;19919;-58
2023/07/10 04:53:40;;;;;;;;;;;;;;;;;;7366488;19;19923;-60
2023/07/10 04:56:06;;;;;;;;;;;;;;;;;;7364791;19;19911;-60
2023/07/10 04:58:45;;;;;;;;;;;;;;;;;;7364238;19;19922;-57
2023/07/10 05:01:11;;;;;;;;;;;;;;;;;;7366605;19;19978;-59
2023/07/10 05:03:37;;;;;;;;;;;;;;;;;;7388863;19;19935;-59
2023/07/10 05:06:02;;;;;;;;;;;;;;;;;;7368739;19;19911;-59
2023/07/10 05:08:27;;;;;;;;;;;;;;;;;;7370125;19;19973;-59
2023/07/10 05:10:54;;;;;;;;;;;;;;;;;;7371185;19;20365;-60
2023/07/10 05:13:20;;;;;;;;;;;;;;;;;;7376183;19;20376;-58
2023/07/10 05:15:45;;;;;;;;;;;;;;;;;;7374343;19;19919;-58
2023/07/10 05:18:11;;;;;;;;;;;;;;;;;;7388539;19;19914;-58
2023/07/10 05:20:37;;;;;;;;;;;;;;;;;;7367273;19;19935;-58
2023/07/10 05:23:02;;;;;;;;;;;;;;;;;;7368490;19;19919;-63
2023/07/10 05:25:28;;;;;;;;;;;;;;;;;;7366331;19;19915;-60
2023/07/10 05:27:53;;;;;;;;;;;;;;;;;;7362497;19;19950;-60
2023/07/10 05:30:18;;;;;;;;;;;;;;;;;;7384539;19;19919;-59
2023/07/10 05:32:43;;;;;;;;;;;;;;;;;;7366136;19;19975;-59
2023/07/10 05:35:09;;;;;;;;;;;;;;;;;;7369957;19;20350;-62
2023/07/10 05:37:34;;;;;;;;;;;;;;;;;;7364906;19;19926;-61
2023/07/10 05:39:59;;;;;;;;;;;;;;;;;;7362809;19;19982;-60
2023/07/10 05:42:24;;;;;;;;;;;;;;;;;;7384655;19;19918;-60
2023/07/10 05:44:53;;;;;;;;;;;;;;;;;;7365444;19;19915;-60
2023/07/10 05:47:18;;;;;;;;;;;;;;;;;;7368287;19;19929;-60
2023/07/10 05:49:43;;;;;;;;;;;;;;;;;;7372319;19;19915;-63
2023/07/10 05:52:08;;;;;;;;;;;;;;;;;;7369516;19;20557;-61
2023/07/10 05:54:34;;;;;;;;;;;;;;;;;;7392409;19;19933;-59
2023/07/10 05:56:59;;;;;;;;;;;;;;;;;;7360594;19;19956;-65
2023/07/10 05:59:25;;;;;;;;;;;;;;;;;;7368970;19;19941;-64
2023/07/10 06:01:50;;;;;;;;;;;;;;;;;;7370726;19;20359;-65
2023/07/10 06:04:15;;;;;;;;;;;;;;;;;;7372749;19;19915;-59
2023/07/10 06:06:40;;;;;;;;;;;;;;;;;;7394220;19;19936;-64
2023/07/10 06:09:05;;;;;;;;;;;;;;;;;;7370075;19;19951;-66
2023/07/10 06:11:31;;;;;;;;;;;;;;;;;;7368665;19;19915;-63
2023/07/10 06:13:56;;;;;;;;;;;;;;;;;;7369920;19;19929;-65
2023/07/10 06:16:21;;;;;;;;;;;;;;;;;;7370476;19;19923;-64
2023/07/10 06:18:46;;;;;;;;;;;;;;;;;;7367175;19;19923;-63
2023/07/10 06:21:12;;;;;;;;;;;;;;;;;;7391127;19;19941;-63
2023/07/10 06:23:37;;;;;;;;;;;;;;;;;;7370214;19;19923;-61
2023/07/10 06:26:02;;;;;;;;;;;;;;;;;;7369785;19;19923;-62
2023/07/10 06:28:31;;;;;;;;;;;;;;;;;;7369091;19;19926;-64
2023/07/10 06:30:57;;;;;;;;;;;;;;;;;;7368756;19;19974;-61
2023/07/10 06:33:23;;;;;;;;;;;;;;;;;;7391710;19;19986;-57
2023/07/10 06:35:48;;;;;;;;;;;;;;;;;;7367761;19;19936;-59
2023/07/10 06:38:13;;;;;;;;;;;;;;;;;;7369028;19;19919;-56
2023/07/10 06:40:39;;;;;;;;;;;;;;;;;;7371660;19;19930;-56
2023/07/10 06:43:04;;;;;;;;;;;;;;;;;;7371261;19;19927;-56
2023/07/10 06:45:29;;;;;;;;;;;;;;;;;;7394394;19;19922;-56
2023/07/10 06:47:54;;;;;;;;;;;;;;;;;;7367541;19;19911;-52
2023/07/10 06:50:19;;;;;;;;;;;;;;;;;;7367801;19;19915;-52
2023/07/10 06:52:45;;;;;;;;;;;;;;;;;;7370505;19;19931;-51
2023/07/10 06:55:11;;;;;;;;;;;;;;;;;;7370479;19;19919;-53
2023/07/10 06:57:37;;;;;;;;;;;;;;;;;;7391211;19;19978;-56
2023/07/10 07:00:03;;;;;;;;;;;;;;;;;;7366151;19;19926;-52
2023/07/10 07:02:28;;;;;;;;;;;;;;;;;;7370989;19;20334;-55
2023/07/10 07:04:54;;;;;;;;;;;;;;;;;;7372568;19;19923;-57
2023/07/10 07:07:19;;;;;;;;;;;;;;;;;;7368087;19;19918;-57
2023/07/10 07:09:44;;;;;;;;;;;;;;;;;;7378129;19;20015;-54
2023/07/10 07:12:10;;;;;;;;;;;;;;;;;;7387736;19;20393;-57
2023/07/10 07:14:35;;;;;;;;;;;;;;;;;;7369168;19;20343;-62
2023/07/10 07:17:01;;;;;;;;;;;;;;;;;;7368607;19;19944;-64
2023/07/10 07:19:26;;;;;;;;;;;;;;;;;;7370019;19;19926;-64
2023/07/10 07:21:51;;;;;;;;;;;;;;;;;;7369976;19;19911;-63
2023/07/10 07:24:16;;;;;;;;;;;;;;;;;;7394633;19;19919;-60
2023/07/10 07:26:42;;;;;;;;;;;;;;;;;;7372467;19;19922;-58
2023/07/10 07:29:07;;;;;;;;;;;;;;;;;;7372876;19;19932;-57
2023/07/10 07:31:33;;;;;;;;;;;;;;;;;;7368413;19;19938;-57
2023/07/10 07:33:58;;;;;;;;;;;;;;;;;;7371159;19;19919;-56
2023/07/10 07:36:24;;;;;;;;;;;;;;;;;;7392098;19;19915;-65
2023/07/10 07:38:49;;;;;;;;;;;;;;;;;;7369643;19;19926;-65
2023/07/10 07:41:15;;;;;;;;;;;;;;;;;;7368642;19;20319;-67
2023/07/10 07:43:40;;;;;;;;;;;;;;;;;;7370400;19;19944;-67
2023/07/10 07:46:05;;;;;;;;;;;;;;;;;;7371523;19;19926;-67
2023/07/10 07:48:31;;;;;;;;;;;;;;;;;;7391313;19;19932;-67
2023/07/10 07:51:01;;;;;;;;;;;;;;;;;;7368695;19;20335;-65
2023/07/10 07:53:27;;;;;;;;;;;;;;;;;;7370337;19;19915;-65
2023/07/10 07:55:52;;;;;;;;;;;;;;;;;;7369875;19;19926;-65
2023/07/10 07:58:17;;;;;;;;;;;;;;;;;;7368296;19;19925;-66
2023/07/10 08:00:42;;;;;;;;;;;;;;;;;;7390446;19;19923;-66
2023/07/10 08:03:09;;;;;;;;;;;;;;;;;;7369132;19;19914;-70
2023/07/10 08:05:35;;;;;;;;;;;;;;;;;;7369161;19;19947;-69
2023/07/10 08:08:00;;;;;;;;;;;;;;;;;;7368262;19;19922;-70
2023/07/10 08:10:26;;;;;;;;;;;;;;;;;;7367005;19;19986;-72
2023/07/10 08:12:52;;;;;;;;;;;;;;;;;;7369153;19;19911;-58
2023/07/10 08:15:17;;;;;;;;;;;;;;;;;;7390014;19;19940;-57
2023/07/10 08:17:42;;;;;;;;;;;;;;;;;;7364744;19;19922;-56
2023/07/10 08:20:08;;;;;;;;;;;;;;;;;;7365115;19;19938;-56
2023/07/10 08:22:33;;;;;;;;;;;;;;;;;;7366695;19;19995;-55
2023/07/10 08:24:58;;;;;;;;;;;;;;;;;;7367849;19;20358;-57
2023/07/10 08:27:23;;;;;;;;;;;;;;;;;;7387894;19;19964;-64
2023/07/10 08:29:49;;;;;;;;;;;;;;;;;;7364740;19;19911;-66
2023/07/10 08:32:15;;;;;;;;;;;;;;;;;;7367051;19;19919;-66
2023/07/10 08:34:40;;;;;;;;;;;;;;;;;;7369039;19;19923;-59
2023/07/10 08:37:05;;;;;;;;;;;;;;;;;;7368446;19;19937;-58
2023/07/10 08:39:30;;;;;;;;;;;;;;;;;;7389355;19;19913;-59
2023/07/10 08:42:01;;;;;;;;;;;;;;;;;;7366754;19;20663;-59
2023/07/10 08:44:30;;;;;;;;;;;;;;;;;;7368837;19;20314;-65
2023/07/10 08:46:56;;;;;;;;;;;;;;;;;;7367950;19;19970;-59
2023/07/10 08:49:21;;;;;;;;;;;;;;;;;;7369035;19;20320;-59
2023/07/10 08:51:55;;;;;;;;;;;;;;;;;;7367465;19;19932;-57
2023/07/10 08:54:21;;;;;;;;;;;;;;;;;;7389434;19;20381;-57
2023/07/10 08:56:50;;;;;;;;;;;;;;;;;;7367851;19;19932;-56
2023/07/10 08:59:35;;;;;;;;;;;;;;;;;;7367327;19;19923;-63
2023/07/10 09:02:01;;;;;;;;;;;;;;;;;;7366758;19;19966;-61
2023/07/10 09:04:26;;;;;;;;;;;;;;;;;;7368126;19;19986;-61
2023/07/10 09:06:53;;;;;;;;;;;;;;;;;;7369352;19;19911;-61
2023/07/10 09:09:18;;;;;;;;;;;;;;;;;;7394229;19;19918;-65
2023/07/10 09:11:44;;;;;;;;;;;;;;;;;;7367853;19;19944;-63
2023/07/10 09:14:28;;;;;;;;;;;;;;;;;;7367946;19;19919;-68
2023/07/10 09:16:53;;;;;;;;;;;;;;;;;;7368686;19;19968;-52
2023/07/10 09:19:20;;;;;;;;;;;;;;;;;;7367160;19;19922;-60
2023/07/10 09:21:45;;;;;;;;;;;;;;;;;;7367930;19;19932;-63
2023/07/10 09:24:21;;;;;;;;;;;;;;;;;;7387945;19;19923;-65
2023/07/10 09:26:47;;;;;;;;;;;;;;;;;;7366481;19;19939;-70
2023/07/10 09:29:15;;;;;;;;;;;;;;;;;;7367318;19;19914;-65
2023/07/10 09:31:52;;;;;;;;;;;;;;;;;;7365337;19;20237;-65
2023/07/10 09:34:22;;;;;;;;;;;;;;;;;;7367208;19;19925;-67
2023/07/10 09:36:51;;;;;;;;;;;;;;;;;;7366614;19;19926;-69
2023/07/10 09:39:16;;;;;;;;;;;;;;;;;;7387751;19;19915;-65
2023/07/10 09:41:42;;;;;;;;;;;;;;;;;;7365110;19;19919;-64
2023/07/10 09:44:14;;;;;;;;;;;;;;;;;;7364259;19;19926;-68
2023/07/10 09:46:40;;;;;;;;;;;;;;;;;;7365224;19;19927;-60
2023/07/10 09:49:11;;;;;;;;;;;;;;;;;;7364781;19;19951;-60
2023/07/10 09:51:37;;;;;;;;;;;;;;;;;;7387057;19;19974;-58
2023/07/10 09:54:06;;;;;;;;;;;;;;;;;;7365243;19;19915;-60
2023/07/10 09:56:37;;;;;;;;;;;;;;;;;;7365524;19;19922;-60
2023/07/10 09:59:12;;;;;;;;;;;;;;;;;;7364638;19;20011;-60
2023/07/10 10:01:37;;;;;;;;;;;;;;;;;;7364589;19;19939;-61
2023/07/10 10:04:03;;;;;;;;;;;;;;;;;;7365561;19;19924;-60
2023/07/10 10:06:29;;;;;;;;;;;;;;;;;;7386965;19;19936;-60
2023/07/10 10:08:55;;;;;;;;;;;;;;;;;;7364948;19;19927;-60
2023/07/10 10:11:49;;;;;;;;;;;;;;;;;;7363648;19;19918;-59
2023/07/10 10:14:18;;;;;;;;;;;;;;;;;;7363309;19;19986;-60
2023/07/10 10:16:48;;;;;;;;;;;;;;;;;;7364059;19;19919;-57
2023/07/10 10:19:22;;;;;;;;;;;;;;;;;;7358417;19;19918;-61
2023/07/10 10:21:47;;;;;;;;;;;;;;;;;;7363822;19;19918;-60
2023/07/10 10:24:13;;;;;;;;;;;;;;;;;;7386255;19;19915;-61
2023/07/10 10:26:55;;;;;;;;;;;;;;;;;;7363088;19;19915;-58
2023/07/10 10:29:25;;;;;;;;;;;;;;;;;;7364030;19;20322;-61
2023/07/10 10:31:54;;;;;;;;;;;;;;;;;;7364651;19;19919;-60
2023/07/10 10:34:27;;;;;;;;;;;;;;;;;;7371896;19;19919;-62
2023/07/10 10:36:55;;;;;;;;;;;;;;;;;;7370889;19;19919;-61
2023/07/10 10:39:43;;;;;;;;;;;;;;;;;;7391879;19;19914;-72
2023/07/10 10:42:18;;;;;;;;;;;;;;;;;;7373516;19;19915;-75
2023/07/10 10:45:06;;;;;;;;;;;;;;;;;;7372243;19;20254;-75
2023/07/10 10:47:34;;;;;;;;;;;;;;;;;;7369593;19;19919;-74
2023/07/10 10:49:59;;;;;;;;;;;;;;;;;;7372154;19;19914;-62
2023/07/10 10:52:31;;;;;;;;;;;;;;;;;;7376351;19;20434;-63
2023/07/10 10:55:05;;;;;;;;;;;;;;;;;;7373431;19;19907;-63
2023/07/10 10:57:53;;;;;;;;;;;;;;;;;;7392961;19;19940;-62
2023/07/10 11:00:18;;;;;;;;;;;;;;;;;;7367683;19;20294;-68
2023/07/10 11:02:44;;;;;;;;;;;;;;;;;;7370475;19;19923;-68
2023/07/10 11:05:17;;;;;;;;;;;;;;;;;;7371447;19;19986;-67
2023/07/10 11:07:44;;;;;;;;;;;;;;;;;;7370257;19;19915;-69
2023/07/10 11:10:15;;;;;;;;;;;;;;;;;;7370957;19;19922;-70
2023/07/10 11:12:41;;;;;;;;;;;;;;;;;;7393055;19;19959;-69
2023/07/10 11:15:17;;;;;;;;;;;;;;;;;;7371014;19;19982;-73
2023/07/10 11:17:44;;;;;;;;;;;;;;;;;;7367171;19;20003;-69
2023/07/10 11:20:13;;;;;;;;;;;;;;;;;;7368109;19;19940;-66
2023/07/10 11:22:47;;;;;;;;;;;;;;;;;;7368532;19;20349;-66
2023/07/10 11:25:27;;;;;;;;;;;;;;;;;;7369898;19;19934;-66
2023/07/10 11:27:52;;;;;;;;;;;;;;;;;;7368496;19;19910;-68
2023/07/10 11:30:29;;;;;;;;;;;;;;;;;;7391504;19;20010;-67
2023/07/10 11:32:55;;;;;;;;;;;;;;;;;;7369752;19;19918;-67
2023/07/10 11:35:21;;;;;;;;;;;;;;;;;;7369920;19;20010;-68
2023/07/10 11:37:49;;;;;;;;;;;;;;;;;;7368284;19;19953;-67
2023/07/10 11:40:23;;;;;;;;;;;;;;;;;;7366148;19;20397;-67
2023/07/10 11:42:49;;;;;;;;;;;;;;;;;;7370283;19;19983;-65
2023/07/10 11:45:14;;;;;;;;;;;;;;;;;;7392133;19;19950;-69
2023/07/10 11:47:41;;;;;;;;;;;;;;;;;;7367134;19;20643;-68
2023/07/10 11:50:21;;;;;;;;;;;;;;;;;;7368663;19;19938;-69
2023/07/10 11:53:04;;;;;;;;;;;;;;;;;;7370274;19;20398;-77
2023/07/10 11:55:29;;;;;;;;;;;;;;;;;;7369254;19;20587;-73
2023/07/10 11:58:10;;;;;;;;;;;;;;;;;;7369491;19;19911;-67
2023/07/10 12:00:35;;;;;;;;;;;;;;;;;;7391105;19;19911;-64
2023/07/10 12:03:01;;;;;;;;;;;;;;;;;;7369797;19;20585;-62
2023/07/10 12:05:29;;;;;;;;;;;;;;;;;;7370241;19;19978;-65
2023/07/10 12:08:06;;;;;;;;;;;;;;;;;;7369376;19;19982;-67
2023/07/10 12:10:35;;;;;;;;;;;;;;;;;;7368902;19;20476;-56
2023/07/10 12:13:01;;;;;;;;;;;;;;;;;;7369860;19;19921;-59
2023/07/10 12:15:26;;;;;;;;;;;;;;;;;;7385642;19;19911;-61
2023/07/10 12:17:52;;;;;;;;;;;;;;;;;;7366944;19;19919;-55
2023/07/10 12:20:17;;;;;;;;;;;;;;;;;;7364890;19;20593;-58
2023/07/10 12:22:43;;;;;;;;;;;;;;;;;;7369202;19;19911;-57
2023/07/10 12:25:13;;;;;;;;;;;;;;;;;;7368846;19;19919;-57
2023/07/10 12:27:38;;;;;;;;;;;;;;;;;;7391219;19;19918;-59
2023/07/10 12:30:12;;;;;;;;;;;;;;;;;;7366450;19;19927;-58
2023/07/10 12:32:37;;;;;;;;;;;;;;;;;;7368460;19;19930;-59
2023/07/10 12:35:02;;;;;;;;;;;;;;;;;;7368660;19;20301;-58
2023/07/10 12:37:27;;;;;;;;;;;;;;;;;;7371268;19;19923;-59
2023/07/10 12:39:53;;;;;;;;;;;;;;;;;;7370405;19;20254;-58
2023/07/10 12:42:30;;;;;;;;;;;;;;;;;;7392849;19;19923;-57
2023/07/10 12:45:06;;;;;;;;;;;;;;;;;;7367555;19;20172;-60
2023/07/10 12:47:32;;;;;;;;;;;;;;;;;;7365867;19;20618;-64
2023/07/10 12:49:58;;;;;;;;;;;;;;;;;;7368426;19;19931;-63
2023/07/10 12:52:26;;;;;;;;;;;;;;;;;;7367664;19;20462;-63
2023/07/10 12:54:52;;;;;;;;;;;;;;;;;;7365485;19;20319;-65
2023/07/10 12:57:19;;;;;;;;;;;;;;;;;;7389497;19;19921;-62
2023/07/10 12:59:48;;;;;;;;;;;;;;;;;;7365050;19;19915;-64
2023/07/10 13:02:18;;;;;;;;;;;;;;;;;;7368118;19;19915;-56
2023/07/10 13:04:48;;;;;;;;;;;;;;;;;;7368867;19;19975;-64
2023/07/10 13:07:16;;;;;;;;;;;;;;;;;;7368215;19;20379;-57
2023/07/10 13:09:49;;;;;;;;;;;;;;;;;;7388362;19;20214;-58
2023/07/10 13:12:19;;;;;;;;;;;;;;;;;;7366121;19;19923;-57
2023/07/10 13:14:45;;;;;;;;;;;;;;;;;;7367029;19;19958;-58
2023/07/10 13:17:11;;;;;;;;;;;;;;;;;;7366312;19;20030;-60
2023/07/10 13:19:36;;;;;;;;;;;;;;;;;;7365957;19;19919;-57
2023/07/10 13:22:02;;;;;;;;;;;;;;;;;;7364395;19;19946;-59
2023/07/10 13:24:27;;;;;;;;;;;;;;;;;;7384384;19;19922;-61
2023/07/10 13:26:53;;;;;;;;;;;;;;;;;;7367389;19;20365;-59
2023/07/10 13:29:18;;;;;;;;;;;;;;;;;;7367457;19;19919;-62
2023/07/10 13:31:43;;;;;;;;;;;;;;;;;;7368955;19;20035;-63
2023/07/10 13:34:12;;;;;;;;;;;;;;;;;;7367999;19;19926;-62
2023/07/10 13:36:37;;;;;;;;;;;;;;;;;;7387501;19;19923;-63
2023/07/10 13:39:02;;;;;;;;;;;;;;;;;;7365546;19;19990;-63
2023/07/10 13:41:28;;;;;;;;;;;;;;;;;;7363878;19;19923;-65
2023/07/10 13:43:53;;;;;;;;;;;;;;;;;;7366245;19;19983;-67
2023/07/10 13:46:28;;;;;;;;;;;;;;;;;;7364840;19;20450;-64
2023/07/10 13:48:56;;;;;;;;;;;;;;;;;;7366509;19;19914;-65
2023/07/10 13:51:23;;;;;;;;;;;;;;;;;;7387227;19;20642;-64
2023/07/10 13:53:48;;;;;;;;;;;;;;;;;;7365947;19;19930;-63
2023/07/10 13:56:22;;;;;;;;;;;;;;;;;;7365538;19;19919;-64
2023/07/10 13:58:47;;;;;;;;;;;;;;;;;;7364647;19;19922;-66
2023/07/10 14:01:13;;;;;;;;;;;;;;;;;;7363748;19;19919;-64
2023/07/10 14:03:39;;;;;;;;;;;;;;;;;;7387807;19;19934;-67
2023/07/10 14:06:16;;;;;;;;;;;;;;;;;;7364337;19;19922;-69
2023/07/10 14:08:42;;;;;;;;;;;;;;;;;;7371568;19;19922;-68
2023/07/10 14:11:07;;;;;;;;;;;;;;;;;;7371404;19;20329;-66
2023/07/10 14:13:32;;;;;;;;;;;;;;;;;;7371390;19;19985;-67
2023/07/10 14:16:02;;;;;;;;;;;;;;;;;;7373375;19;19930;-68
2023/07/10 14:18:28;;;;;;;;;;;;;;;;;;7390669;19;19944;-68
2023/07/10 14:20:53;;;;;;;;;;;;;;;;;;7371182;19;19919;-58
2023/07/10 14:23:19;;;;;;;;;;;;;;;;;;7370342;19;20411;-58
2023/07/10 14:25:46;;;;;;;;;;;;;;;;;;7369241;19;19919;-57
2023/07/10 14:28:12;;;;;;;;;;;;;;;;;;7369639;19;19926;-67
2023/07/10 14:30:37;;;;;;;;;;;;;;;;;;7393314;19;19910;-67
2023/07/10 14:33:03;;;;;;;;;;;;;;;;;;7371583;19;19931;-67
2023/07/10 14:35:28;;;;;;;;;;;;;;;;;;7369832;19;20295;-67
2023/07/10 14:37:53;;;;;;;;;;;;;;;;;;7368616;19;19918;-67
2023/07/10 14:40:21;;;;;;;;;;;;;;;;;;7367801;19;20014;-67
2023/07/10 14:42:46;;;;;;;;;;;;;;;;;;7369205;19;19925;-66
2023/07/10 14:45:13;;;;;;;;;;;;;;;;;;7391563;19;19918;-68
2023/07/10 14:47:38;;;;;;;;;;;;;;;;;;7368363;19;19915;-67
2023/07/10 14:50:05;;;;;;;;;;;;;;;;;;7371186;19;19923;-67
2023/07/10 14:52:32;;;;;;;;;;;;;;;;;;7373055;19;20188;-67
2023/07/10 14:54:59;;;;;;;;;;;;;;;;;;7372529;19;19915;-69
2023/07/10 14:57:28;;;;;;;;;;;;;;;;;;7392559;19;19978;-68
2023/07/10 14:59:54;;;;;;;;;;;;;;;;;;7369775;19;19914;-68
2023/07/10 15:02:20;;;;;;;;;;;;;;;;;;7371901;19;19926;-66
2023/07/10 15:04:45;;;;;;;;;;;;;;;;;;7372203;19;19915;-67
2023/07/10 15:07:11;;;;;;;;;;;;;;;;;;7371941;19;20475;-67
2023/07/10 15:09:36;;;;;;;;;;;;;;;;;;7392908;19;19922;-68
2023/07/10 15:12:02;;;;;;;;;;;;;;;;;;7371813;19;19915;-66
2023/07/10 15:14:27;;;;;;;;;;;;;;;;;;7371996;19;19938;-67
2023/07/10 15:16:52;;;;;;;;;;;;;;;;;;7370726;19;19997;-66
2023/07/10 15:19:20;;;;;;;;;;;;;;;;;;7370099;19;20361;-67
2023/07/10 15:21:45;;;;;;;;;;;;;;;;;;7371851;19;20277;-67
2023/07/10 15:24:24;;;;;;;;;;;;;;;;;;7394156;19;19914;-67
2023/07/10 15:26:50;;;;;;;;;;;;;;;;;;7370530;19;19934;-67
2023/07/10 15:29:15;;;;;;;;;;;;;;;;;;7370643;19;19922;-67
2023/07/10 15:31:40;;;;;;;;;;;;;;;;;;7368762;19;19986;-67
2023/07/10 15:34:15;;;;;;;;;;;;;;;;;;7371416;19;19932;-66
2023/07/10 15:36:40;;;;;;;;;;;;;;;;;;7393183;19;19923;-68
2023/07/10 15:39:11;;;;;;;;;;;;;;;;;;7369934;19;19915;-67
2023/07/10 15:41:37;;;;;;;;;;;;;;;;;;7369579;19;19927;-67
2023/07/10 15:44:06;;;;;;;;;;;;;;;;;;7370341;19;19918;-67
2023/07/10 15:46:32;;;;;;;;;;;;;;;;;;7370479;19;20230;-67
2023/07/10 15:48:57;;;;;;;;;;;;;;;;;;7370513;19;19918;-67
2023/07/10 15:51:25;;;;;;;;;;;;;;;;;;7392035;19;20346;-67
2023/07/10 15:53:51;;;;;;;;;;;;;;;;;;7369841;19;20238;-67
2023/07/10 15:56:16;;;;;;;;;;;;;;;;;;7370782;19;19986;-68
2023/07/10 15:58:41;;;;;;;;;;;;;;;;;;7368457;19;19915;-66
2023/07/10 16:01:10;;;;;;;;;;;;;;;;;;7370390;19;19939;-67
2023/07/10 16:03:36;;;;;;;;;;;;;;;;;;7392884;19;19918;-67
2023/07/10 16:06:02;;;;;;;;;;;;;;;;;;7370633;19;19918;-68
2023/07/10 16:08:29;;;;;;;;;;;;;;;;;;7368443;19;19923;-67
2023/07/10 16:10:56;;;;;;;;;;;;;;;;;;7369704;19;19925;-67
2023/07/10 16:13:24;;;;;;;;;;;;;;;;;;7370693;19;19922;-66
2023/07/10 16:15:50;;;;;;;;;;;;;;;;;;7370107;19;19918;-67
2023/07/10 16:18:22;;;;;;;;;;;;;;;;;;7388176;19;19915;-68
2023/07/10 16:20:47;;;;;;;;;;;;;;;;;;7368635;19;19934;-67
2023/07/10 16:23:17;;;;;;;;;;;;;;;;;;7371490;19;19915;-67
2023/07/10 16:25:43;;;;;;;;;;;;;;;;;;7370634;19;20276;-67
2023/07/10 16:28:12;;;;;;;;;;;;;;;;;;7371914;19;20786;-67
2023/07/10 16:30:37;;;;;;;;;;;;;;;;;;7389459;19;19948;-67
2023/07/10 16:33:04;;;;;;;;;;;;;;;;;;7368545;19;19927;-67
2023/07/10 16:35:30;;;;;;;;;;;;;;;;;;7368955;19;19915;-67
2023/07/10 16:37:55;;;;;;;;;;;;;;;;;;7369556;19;19927;-68
2023/07/10 16:40:21;;;;;;;;;;;;;;;;;;7367359;19;20154;-67
2023/07/10 16:42:49;;;;;;;;;;;;;;;;;;7368957;19;19934;-66
2023/07/10 16:45:19;;;;;;;;;;;;;;;;;;7390183;19;19919;-67